CLOSE
Current Station
Nearby Weather Stations

Elev 620 ft 41.78 °N, 87.74 °W | Updated 3 minutes ago

Partly Cloudy
Partly Cloudy
75.2 °F
Feels Like 77 °F
N
4.0
Wind Variable Wind from NNW
Gusts 11.0 mph

Today
High -- | Low -- °F
--% Chance of Precip.
Yesterday
High -- | Low -- °F
Precip. -- in
6:32 AM 6:56 PM
Waning Crescent, 34% visible
Pressure 30.02 in
Visibility 10.0 miles
Clouds Few 4800 ft
Few 9500 ft
Scattered Clouds 25000 ft
Heat Index 77 °F
Dew Point 42 °F
Humidity 30%
Rainfall -999.00 in
Snow Depth Not available.
UV 6 out of 12
Pollen 5.20 out of 12
Ozone Good
PM2.5 Moderate
Flu Activity Not available.
METAR KMDW 171651Z 22005KT 10SM FEW048 FEW095 SCT250 20/08 A3003 RMK AO2 SLP164 T02000078

More Conditions Fewer Conditions

Pressure 30.02 in
Visibility 10.0 miles
Clouds Few 4800 ft
Few 9500 ft
Scattered Clouds 25000 ft
Heat Index 77 °F
Dew Point 42 °F
Humidity 30%
Rainfall -999.00 in
Snow Depth Not available.
UV 6 out of 12
Pollen 5.20 out of 12
Ozone Good
PM2.5 Moderate
Flu Activity Not available.
METAR KMDW 171651Z 22005KT 10SM FEW048 FEW095 SCT250 20/08 A3003 RMK AO2 SLP164 T02000078

More Conditions Fewer Conditions

10-Day Weather Forecast

Almanac

Astronomy

Sep. 17, 2014 Rise Set
Actual Time 6:32 AM CDT 6:56 PM CDT
Civil Twilight 6:05 AM CDT 7:24 PM CDT
Nautical Twilight 5:32 AM CDT 7:57 PM CDT
Astronomical Twilight 4:58 AM CDT 8:30 PM CDT
Moon 12:28 AM CDT 3:09 PM CDT
Length of Visible Light 13h 19m
Length of Day
12h 23m
Tomorrow will be 2m 47s shorter.
Waning Crescent, 34% of the Moon is Illuminated
Today
Waning Crescent
Sep 24
New
Oct 1
First Quarter
Oct 8
Full
Oct 15
Last Quarter

Today's Extremes

State Highs State Lows

Community

WunderPhotos

Upload Photos

1,754,109 photos uploaded!

Nearby

Air Quality

  Air Quality AQ Index Pollutant
Yesterday Good
PM2.5
Yesterday Good
OZONE
Current Moderate
PM2.5
Current Good
OZONE
Wednesday Moderate
PM2.5
Thursday Moderate
PM2.5
Friday Moderate
PM2.5

Snow Depth

Station Depth Elevation
No new snow has been reported.

Earthquake Activity

City Distance Mag. Time & Date
No recent earthquake activity has been reported nearby.
Minimum magnitude displayed is 2.5.

Coastal Water Temperatures

Place Temperature
No Stations Reporting

Nearby Weather Stations